sensor_id;sensor_type;location;lat;lon;timestamp;pressure;altitude;pressure_sealevel;temperature;humidity
53651;BME280;39552;45.776;15.892;2023-02-02T00:00:48;100618.06;;;2.68;100.00
53651;BME280;39552;45.776;15.892;2023-02-02T00:03:15;100608.47;;;2.61;100.00
53651;BME280;39552;45.776;15.892;2023-02-02T00:05:45;100604.63;;;2.73;100.00
53651;BME280;39552;45.776;15.892;2023-02-02T00:08:12;100601.38;;;2.99;100.00
53651;BME280;39552;45.776;15.892;2023-02-02T00:10:40;100590.59;;;3.04;100.00
53651;BME280;39552;45.776;15.892;2023-02-02T00:13:07;100576.59;;;2.92;100.00
53651;BME280;39552;45.776;15.892;2023-02-02T00:15:34;100572.59;;;2.73;100.00
53651;BME280;39552;45.776;15.892;2023-02-02T00:18:01;100555.09;;;2.58;100.00
53651;BME280;39552;45.776;15.892;2023-02-02T00:20:27;100578.69;;;2.78;100.00
53651;BME280;39552;45.776;15.892;2023-02-02T00:22:54;100574.97;;;2.85;100.00
53651;BME280;39552;45.776;15.892;2023-02-02T00:25:21;100566.31;;;3.13;100.00
53651;BME280;39552;45.776;15.892;2023-02-02T00:27:49;100569.03;;;2.72;100.00
53651;BME280;39552;45.776;15.892;2023-02-02T00:30:16;100583.00;;;2.43;100.00
53651;BME280;39552;45.776;15.892;2023-02-02T00:32:43;100591.84;;;2.45;100.00
53651;BME280;39552;45.776;15.892;2023-02-02T00:35:10;100577.91;;;3.12;100.00
53651;BME280;39552;45.776;15.892;2023-02-02T00:37:36;100544.84;;;3.16;100.00
53651;BME280;39552;45.776;15.892;2023-02-02T00:40:04;100562.75;;;3.12;100.00
53651;BME280;39552;45.776;15.892;2023-02-02T00:42:31;100600.59;;;2.53;100.00
53651;BME280;39552;45.776;15.892;2023-02-02T00:44:59;100581.59;;;3.08;100.00
53651;BME280;39552;45.776;15.892;2023-02-02T00:47:25;100582.47;;;3.46;100.00
53651;BME280;39552;45.776;15.892;2023-02-02T00:49:52;100593.75;;;3.21;100.00
53651;BME280;39552;45.776;15.892;2023-02-02T00:52:19;100589.94;;;3.30;100.00
53651;BME280;39552;45.776;15.892;2023-02-02T00:54:46;100592.00;;;3.56;100.00
53651;BME280;39552;45.776;15.892;2023-02-02T00:57:13;100602.50;;;3.64;100.00
53651;BME280;39552;45.776;15.892;2023-02-02T00:59:40;100585.47;;;3.66;100.00
53651;BME280;39552;45.776;15.892;2023-02-02T01:02:11;100581.19;;;3.59;100.00
53651;BME280;39552;45.776;15.892;2023-02-02T01:04:38;100588.19;;;3.65;100.00
53651;BME280;39552;45.776;15.892;2023-02-02T01:07:05;100576.53;;;3.33;100.00
53651;BME280;39552;45.776;15.892;2023-02-02T01:09:32;100579.78;;;3.46;100.00
53651;BME280;39552;45.776;15.892;2023-02-02T01:11:58;100587.88;;;3.43;100.00
53651;BME280;39552;45.776;15.892;2023-02-02T01:14:25;100585.63;;;3.24;100.00
53651;BME280;39552;45.776;15.892;2023-02-02T01:16:52;100564.78;;;3.39;100.00
53651;BME280;39552;45.776;15.892;2023-02-02T01:19:20;100569.44;;;3.66;100.00
53651;BME280;39552;45.776;15.892;2023-02-02T01:21:47;100578.97;;;3.77;100.00
53651;BME280;39552;45.776;15.892;2023-02-02T01:24:14;100571.13;;;3.69;100.00
53651;BME280;39552;45.776;15.892;2023-02-02T01:26:41;100571.41;;;3.60;100.00
53651;BME280;39552;45.776;15.892;2023-02-02T01:29:07;100574.94;;;3.24;100.00
53651;BME280;39552;45.776;15.892;2023-02-02T01:31:34;100571.84;;;3.41;100.00
53651;BME280;39552;45.776;15.892;2023-02-02T01:34:01;100574.34;;;3.49;100.00
53651;BME280;39552;45.776;15.892;2023-02-02T01:36:29;100570.78;;;3.12;100.00
53651;BME280;39552;45.776;15.892;2023-02-02T01:38:55;100589.50;;;3.11;100.00
53651;BME280;39552;45.776;15.892;2023-02-02T01:41:24;100592.38;;;3.41;100.00
53651;BME280;39552;45.776;15.892;2023-02-02T01:43:57;100570.78;;;3.48;100.00
53651;BME280;39552;45.776;15.892;2023-02-02T01:46:26;100584.16;;;3.48;100.00
53651;BME280;39552;45.776;15.892;2023-02-02T01:49:00;100570.75;;;3.50;100.00
53651;BME280;39552;45.776;15.892;2023-02-02T01:51:34;100560.66;;;3.61;100.00
53651;BME280;39552;45.776;15.892;2023-02-02T01:54:05;100558.63;;;3.35;100.00
53651;BME280;39552;45.776;15.892;2023-02-02T01:56:35;100565.97;;;3.27;100.00
53651;BME280;39552;45.776;15.892;2023-02-02T01:59:04;100588.00;;;2.59;100.00
53651;BME280;39552;45.776;15.892;2023-02-02T02:01:31;100574.47;;;2.68;100.00
53651;BME280;39552;45.776;15.892;2023-02-02T02:03:57;100541.50;;;3.08;100.00
53651;BME280;39552;45.776;15.892;2023-02-02T02:06:25;100538.28;;;3.29;100.00
53651;BME280;39552;45.776;15.892;2023-02-02T02:08:55;100524.09;;;3.26;100.00
53651;BME280;39552;45.776;15.892;2023-02-02T02:11:23;100514.00;;;3.01;100.00
53651;BME280;39552;45.776;15.892;2023-02-02T02:13:51;100520.78;;;2.80;100.00
53651;BME280;39552;45.776;15.892;2023-02-02T02:16:23;100510.47;;;2.63;100.00
53651;BME280;39552;45.776;15.892;2023-02-02T02:18:55;100526.13;;;2.80;100.00
53651;BME280;39552;45.776;15.892;2023-02-02T02:21:33;100520.16;;;2.69;100.00
53651;BME280;39552;45.776;15.892;2023-02-02T02:24:42;100527.88;;;2.81;100.00
53651;BME280;39552;45.776;15.892;2023-02-02T02:27:58;100549.91;;;2.91;100.00
53651;BME280;39552;45.776;15.892;2023-02-02T02:30:44;100547.19;;;2.92;100.00
53651;BME280;39552;45.776;15.892;2023-02-02T02:33:20;100553.75;;;2.79;100.00
53651;BME280;39552;45.776;15.892;2023-02-02T02:35:56;100550.88;;;2.87;100.00
53651;BME280;39552;45.776;15.892;2023-02-02T02:38:34;100538.56;;;2.80;100.00
53651;BME280;39552;45.776;15.892;2023-02-02T02:41:07;100537.59;;;2.84;100.00
53651;BME280;39552;45.776;15.892;2023-02-02T02:43:38;100534.84;;;2.87;100.00
53651;BME280;39552;45.776;15.892;2023-02-02T02:46:08;100542.75;;;2.91;100.00
53651;BME280;39552;45.776;15.892;2023-02-02T02:48:37;100544.94;;;2.74;100.00
53651;BME280;39552;45.776;15.892;2023-02-02T02:51:08;100549.00;;;2.92;100.00
53651;BME280;39552;45.776;15.892;2023-02-02T02:53:54;100530.47;;;2.84;100.00
53651;BME280;39552;45.776;15.892;2023-02-02T02:56:26;100536.56;;;2.89;100.00
53651;BME280;39552;45.776;15.892;2023-02-02T02:58:59;100554.28;;;2.93;100.00
53651;BME280;39552;45.776;15.892;2023-02-02T03:01:33;100538.72;;;2.73;100.00
53651;BME280;39552;45.776;15.892;2023-02-02T03:04:09;100544.53;;;2.92;100.00
53651;BME280;39552;45.776;15.892;2023-02-02T03:06:42;100541.44;;;2.72;100.00
53651;BME280;39552;45.776;15.892;2023-02-02T03:09:12;100524.66;;;3.03;100.00
53651;BME280;39552;45.776;15.892;2023-02-02T03:11:41;100533.69;;;2.99;100.00
53651;BME280;39552;45.776;15.892;2023-02-02T03:14:07;100524.13;;;2.88;100.00
53651;BME280;39552;45.776;15.892;2023-02-02T03:16:35;100514.81;;;2.69;100.00
53651;BME280;39552;45.776;15.892;2023-02-02T03:19:02;100525.84;;;2.53;100.00
53651;BME280;39552;45.776;15.892;2023-02-02T03:21:30;100516.63;;;2.67;100.00
53651;BME280;39552;45.776;15.892;2023-02-02T03:23:57;100507.41;;;2.80;100.00
53651;BME280;39552;45.776;15.892;2023-02-02T03:26:24;100501.72;;;2.95;100.00
53651;BME280;39552;45.776;15.892;2023-02-02T03:28:54;100513.25;;;2.98;100.00
53651;BME280;39552;45.776;15.892;2023-02-02T03:31:21;100515.13;;;2.92;100.00
53651;BME280;39552;45.776;15.892;2023-02-02T03:33:48;100506.00;;;2.64;100.00
53651;BME280;39552;45.776;15.892;2023-02-02T03:36:15;100500.81;;;2.58;100.00
53651;BME280;39552;45.776;15.892;2023-02-02T03:38:43;100505.09;;;2.65;100.00
53651;BME280;39552;45.776;15.892;2023-02-02T03:41:09;100502.56;;;2.59;100.00
53651;BME280;39552;45.776;15.892;2023-02-02T03:43:36;100506.41;;;2.45;100.00
53651;BME280;39552;45.776;15.892;2023-02-02T03:46:04;100489.78;;;2.34;100.00
53651;BME280;39552;45.776;15.892;2023-02-02T03:48:33;100510.13;;;2.40;100.00
53651;BME280;39552;45.776;15.892;2023-02-02T03:51:00;100484.09;;;2.49;100.00
53651;BME280;39552;45.776;15.892;2023-02-02T03:53:26;100519.41;;;2.61;100.00
53651;BME280;39552;45.776;15.892;2023-02-02T03:55:54;100524.66;;;2.67;100.00
53651;BME280;39552;45.776;15.892;2023-02-02T03:58:21;100532.84;;;2.58;100.00
53651;BME280;39552;45.776;15.892;2023-02-02T04:00:48;100530.03;;;2.64;100.00
53651;BME280;39552;45.776;15.892;2023-02-02T04:03:14;100531.47;;;2.80;100.00
53651;BME280;39552;45.776;15.892;2023-02-02T04:05:41;100534.84;;;2.87;100.00
53651;BME280;39552;45.776;15.892;2023-02-02T04:08:07;100532.50;;;2.73;100.00
53651;BME280;39552;45.776;15.892;2023-02-02T04:10:34;100519.78;;;2.84;100.00
53651;BME280;39552;45.776;15.892;2023-02-02T04:13:02;100532.81;;;2.98;100.00
53651;BME280;39552;45.776;15.892;2023-02-02T04:15:29;100509.16;;;2.81;100.00
53651;BME280;39552;45.776;15.892;2023-02-02T04:17:55;100528.00;;;2.75;100.00
53651;BME280;39552;45.776;15.892;2023-02-02T04:20:22;100527.56;;;2.93;100.00
53651;BME280;39552;45.776;15.892;2023-02-02T04:22:49;100531.81;;;3.02;100.00
53651;BME280;39552;45.776;15.892;2023-02-02T04:25:16;100530.16;;;2.97;100.00
53651;BME280;39552;45.776;15.892;2023-02-02T04:27:44;100530.16;;;2.98;100.00
53651;BME280;39552;45.776;15.892;2023-02-02T04:30:12;100519.31;;;3.03;100.00
53651;BME280;39552;45.776;15.892;2023-02-02T04:32:39;100515.91;;;2.98;100.00
53651;BME280;39552;45.776;15.892;2023-02-02T04:35:07;100516.56;;;2.68;100.00
53651;BME280;39552;45.776;15.892;2023-02-02T04:37:33;100519.31;;;2.67;100.00
53651;BME280;39552;45.776;15.892;2023-02-02T04:40:00;100488.69;;;2.41;100.00
53651;BME280;39552;45.776;15.892;2023-02-02T04:42:27;100513.72;;;2.37;100.00
53651;BME280;39552;45.776;15.892;2023-02-02T04:44:53;100518.75;;;2.51;100.00
53651;BME280;39552;45.776;15.892;2023-02-02T04:47:22;100522.19;;;2.58;100.00
53651;BME280;39552;45.776;15.892;2023-02-02T04:49:48;100530.09;;;2.61;100.00
53651;BME280;39552;45.776;15.892;2023-02-02T04:52:15;100515.34;;;2.44;100.00
53651;BME280;39552;45.776;15.892;2023-02-02T04:54:42;100524.72;;;2.62;100.00
53651;BME280;39552;45.776;15.892;2023-02-02T04:57:08;100531.75;;;2.66;100.00
53651;BME280;39552;45.776;15.892;2023-02-02T04:59:35;100526.38;;;2.68;100.00
53651;BME280;39552;45.776;15.892;2023-02-02T05:02:02;100532.75;;;2.62;100.00
53651;BME280;39552;45.776;15.892;2023-02-02T05:04:30;100518.75;;;2.51;100.00
53651;BME280;39552;45.776;15.892;2023-02-02T05:06:56;100525.00;;;2.51;100.00
53651;BME280;39552;45.776;15.892;2023-02-02T05:09:24;100520.72;;;2.43;100.00
53651;BME280;39552;45.776;15.892;2023-02-02T05:11:50;100529.69;;;2.40;100.00
53651;BME280;39552;45.776;15.892;2023-02-02T05:14:17;100524.66;;;2.26;100.00
53651;BME280;39552;45.776;15.892;2023-02-02T05:16:44;100522.81;;;2.28;100.00
53651;BME280;39552;45.776;15.892;2023-02-02T05:19:11;100516.56;;;2.29;100.00
53651;BME280;39552;45.776;15.892;2023-02-02T05:21:39;100519.91;;;2.39;100.00
53651;BME280;39552;45.776;15.892;2023-02-02T05:24:05;100504.13;;;2.28;100.00
53651;BME280;39552;45.776;15.892;2023-02-02T05:26:32;100515.03;;;2.17;100.00
53651;BME280;39552;45.776;15.892;2023-02-02T05:28:59;100518.69;;;2.12;100.00
53651;BME280;39552;45.776;15.892;2023-02-02T05:31:26;100524.00;;;2.13;100.00
53651;BME280;39552;45.776;15.892;2023-02-02T05:33:52;100540.75;;;2.20;100.00
53651;BME280;39552;45.776;15.892;2023-02-02T05:36:19;100544.31;;;2.22;100.00
53651;BME280;39552;45.776;15.892;2023-02-02T05:38:47;100546.22;;;2.14;100.00
53651;BME280;39552;45.776;15.892;2023-02-02T05:41:14;100534.03;;;2.01;100.00
53651;BME280;39552;45.776;15.892;2023-02-02T05:43:40;100546.91;;;1.82;100.00
53651;BME280;39552;45.776;15.892;2023-02-02T05:46:07;100552.94;;;1.91;100.00
53651;BME280;39552;45.776;15.892;2023-02-02T05:48:34;100570.09;;;1.76;100.00
53651;BME280;39552;45.776;15.892;2023-02-02T05:51:03;100596.31;;;2.01;100.00
53651;BME280;39552;45.776;15.892;2023-02-02T05:53:33;100584.59;;;2.08;100.00
53651;BME280;39552;45.776;15.892;2023-02-02T05:56:01;100588.25;;;2.03;100.00
53651;BME280;39552;45.776;15.892;2023-02-02T05:58:28;100579.34;;;2.05;100.00
53651;BME280;39552;45.776;15.892;2023-02-02T06:00:55;100586.09;;;2.23;100.00
53651;BME280;39552;45.776;15.892;2023-02-02T06:03:22;100587.63;;;2.35;100.00
53651;BME280;39552;45.776;15.892;2023-02-02T06:05:49;100585.41;;;2.13;100.00
53651;BME280;39552;45.776;15.892;2023-02-02T06:08:16;100577.81;;;2.35;100.00
53651;BME280;39552;45.776;15.892;2023-02-02T06:10:43;100547.75;;;2.26;100.00
53651;BME280;39552;45.776;15.892;2023-02-02T06:13:11;100587.22;;;2.11;100.00
53651;BME280;39552;45.776;15.892;2023-02-02T06:15:37;100591.34;;;1.81;100.00
53651;BME280;39552;45.776;15.892;2023-02-02T06:18:04;100590.38;;;1.85;100.00
53651;BME280;39552;45.776;15.892;2023-02-02T06:20:31;100590.91;;;2.04;100.00
53651;BME280;39552;45.776;15.892;2023-02-02T06:22:58;100579.47;;;1.98;100.00
53651;BME280;39552;45.776;15.892;2023-02-02T06:25:24;100590.00;;;2.05;100.00
53651;BME280;39552;45.776;15.892;2023-02-02T06:27:54;100592.03;;;1.92;100.00
53651;BME280;39552;45.776;15.892;2023-02-02T06:30:22;100603.09;;;2.19;100.00
53651;BME280;39552;45.776;15.892;2023-02-02T06:32:49;100601.50;;;2.09;100.00
53651;BME280;39552;45.776;15.892;2023-02-02T06:35:15;100608.44;;;2.17;100.00
53651;BME280;39552;45.776;15.892;2023-02-02T06:37:42;100619.53;;;1.96;100.00
53651;BME280;39552;45.776;15.892;2023-02-02T06:40:10;100626.28;;;2.15;100.00
53651;BME280;39552;45.776;15.892;2023-02-02T06:42:37;100625.69;;;2.01;100.00
53651;BME280;39552;45.776;15.892;2023-02-02T06:45:04;100642.28;;;2.15;100.00
53651;BME280;39552;45.776;15.892;2023-02-02T06:47:32;100628.53;;;2.35;100.00
53651;BME280;39552;45.776;15.892;2023-02-02T06:49:59;100643.84;;;2.27;100.00
53651;BME280;39552;45.776;15.892;2023-02-02T06:52:26;100643.94;;;2.23;100.00
53651;BME280;39552;45.776;15.892;2023-02-02T06:54:52;100643.88;;;2.26;100.00
53651;BME280;39552;45.776;15.892;2023-02-02T06:57:19;100650.69;;;2.42;100.00
53651;BME280;39552;45.776;15.892;2023-02-02T06:59:46;100638.78;;;2.13;100.00
53651;BME280;39552;45.776;15.892;2023-02-02T07:02:12;100651.97;;;2.21;100.00
53651;BME280;39552;45.776;15.892;2023-02-02T07:04:40;100658.72;;;2.41;100.00
53651;BME280;39552;45.776;15.892;2023-02-02T07:07:07;100647.31;;;2.32;100.00
53651;BME280;39552;45.776;15.892;2023-02-02T07:09:34;100656.34;;;2.25;100.00
53651;BME280;39552;45.776;15.892;2023-02-02T07:12:01;100661.50;;;2.36;100.00
53651;BME280;39552;45.776;15.892;2023-02-02T07:14:27;100694.78;;;2.63;100.00
53651;BME280;39552;45.776;15.892;2023-02-02T07:16:54;100718.97;;;2.55;100.00
53651;BME280;39552;45.776;15.892;2023-02-02T07:19:21;100734.59;;;2.75;100.00
53651;BME280;39552;45.776;15.892;2023-02-02T07:21:49;100718.38;;;2.86;100.00
53651;BME280;39552;45.776;15.892;2023-02-02T07:24:16;100722.41;;;3.06;100.00
53651;BME280;39552;45.776;15.892;2023-02-02T07:26:42;100728.44;;;3.15;100.00
53651;BME280;39552;45.776;15.892;2023-02-02T07:29:11;100718.63;;;3.16;100.00
53651;BME280;39552;45.776;15.892;2023-02-02T07:31:38;100736.19;;;3.26;100.00
53651;BME280;39552;45.776;15.892;2023-02-02T07:34:05;100728.81;;;3.38;100.00
53651;BME280;39552;45.776;15.892;2023-02-02T07:36:32;100728.91;;;3.34;100.00
53651;BME280;39552;45.776;15.892;2023-02-02T07:39:01;100750.16;;;3.41;100.00
53651;BME280;39552;45.776;15.892;2023-02-02T07:41:28;100761.31;;;3.61;100.00
53651;BME280;39552;45.776;15.892;2023-02-02T07:43:54;100771.94;;;3.63;100.00
53651;BME280;39552;45.776;15.892;2023-02-02T07:46:21;100781.66;;;3.67;100.00
53651;BME280;39552;45.776;15.892;2023-02-02T07:48:48;100783.41;;;3.69;100.00
53651;BME280;39552;45.776;15.892;2023-02-02T07:51:16;100787.00;;;3.68;100.00
53651;BME280;39552;45.776;15.892;2023-02-02T07:53:43;100779.75;;;3.73;100.00
53651;BME280;39552;45.776;15.892;2023-02-02T07:56:13;100782.34;;;3.77;100.00
53651;BME280;39552;45.776;15.892;2023-02-02T07:58:41;100784.06;;;3.81;100.00
53651;BME280;39552;45.776;15.892;2023-02-02T08:01:09;100785.25;;;4.05;100.00
53651;BME280;39552;45.776;15.892;2023-02-02T08:03:37;100760.16;;;4.09;100.00
53651;BME280;39552;45.776;15.892;2023-02-02T08:06:08;100774.22;;;4.17;100.00
53651;BME280;39552;45.776;15.892;2023-02-02T08:08:36;100764.41;;;4.18;100.00
53651;BME280;39552;45.776;15.892;2023-02-02T08:11:03;100777.31;;;4.36;100.00
53651;BME280;39552;45.776;15.892;2023-02-02T08:13:35;100786.91;;;4.46;100.00
53651;BME280;39552;45.776;15.892;2023-02-02T08:16:02;100810.56;;;4.63;100.00
53651;BME280;39552;45.776;15.892;2023-02-02T08:18:28;100829.78;;;4.46;100.00
53651;BME280;39552;45.776;15.892;2023-02-02T08:20:57;100837.72;;;4.49;100.00
53651;BME280;39552;45.776;15.892;2023-02-02T08:23:24;100840.94;;;4.64;100.00
53651;BME280;39552;45.776;15.892;2023-02-02T08:25:51;100837.72;;;4.49;100.00
53651;BME280;39552;45.776;15.892;2023-02-02T08:28:19;100850.66;;;4.68;100.00
53651;BME280;39552;45.776;15.892;2023-02-02T08:30:47;100825.56;;;4.70;100.00
53651;BME280;39552;45.776;15.892;2023-02-02T08:33:14;100837.34;;;4.63;100.00
53651;BME280;39552;45.776;15.892;2023-02-02T08:35:41;100838.41;;;4.90;100.00
53651;BME280;39552;45.776;15.892;2023-02-02T08:38:08;100853.53;;;4.95;100.00
53651;BME280;39552;45.776;15.892;2023-02-02T08:40:35;100849.53;;;5.09;100.00
53651;BME280;39552;45.776;15.892;2023-02-02T08:43:01;100851.41;;;5.06;100.00
53651;BME280;39552;45.776;15.892;2023-02-02T08:45:29;100834.38;;;5.08;100.00
53651;BME280;39552;45.776;15.892;2023-02-02T08:48:17;100832.28;;;5.20;100.00
53651;BME280;39552;45.776;15.892;2023-02-02T08:50:44;100831.31;;;5.22;100.00
53651;BME280;39552;45.776;15.892;2023-02-02T08:53:16;100835.50;;;5.31;100.00
53651;BME280;39552;45.776;15.892;2023-02-02T08:55:43;100841.56;;;5.39;100.00
53651;BME280;39552;45.776;15.892;2023-02-02T08:58:09;100854.88;;;5.42;100.00
53651;BME280;39552;45.776;15.892;2023-02-02T09:00:36;100876.84;;;5.57;100.00
53651;BME280;39552;45.776;15.892;2023-02-02T09:03:03;100876.03;;;5.53;100.00
53651;BME280;39552;45.776;15.892;2023-02-02T09:05:31;100869.91;;;5.48;100.00
53651;BME280;39552;45.776;15.892;2023-02-02T09:07:58;100865.66;;;5.41;100.00
53651;BME280;39552;45.776;15.892;2023-02-02T09:10:25;100876.81;;;5.58;100.00
53651;BME280;39552;45.776;15.892;2023-02-02T09:12:51;100858.13;;;5.54;100.00
53651;BME280;39552;45.776;15.892;2023-02-02T09:15:18;100882.59;;;5.74;100.00
53651;BME280;39552;45.776;15.892;2023-02-02T09:17:44;100871.91;;;5.72;100.00
53651;BME280;39552;45.776;15.892;2023-02-02T09:20:11;100877.88;;;5.82;100.00
53651;BME280;39552;45.776;15.892;2023-02-02T09:22:39;100877.63;;;5.90;100.00
53651;BME280;39552;45.776;15.892;2023-02-02T09:25:06;100858.88;;;5.88;100.00
53651;BME280;39552;45.776;15.892;2023-02-02T09:27:36;100867.59;;;5.97;100.00
53651;BME280;39552;45.776;15.892;2023-02-02T09:30:03;100855.91;;;5.99;100.00
53651;BME280;39552;45.776;15.892;2023-02-02T09:32:30;100862.00;;;6.04;100.00
53651;BME280;39552;45.776;15.892;2023-02-02T09:34:57;100853.25;;;5.98;100.00
53651;BME280;39552;45.776;15.892;2023-02-02T09:37:24;100845.06;;;6.02;100.00
53651;BME280;39552;45.776;15.892;2023-02-02T09:39:52;100865.47;;;6.08;100.00
53651;BME280;39552;45.776;15.892;2023-02-02T09:42:31;100855.63;;;6.08;100.00
53651;BME280;39552;45.776;15.892;2023-02-02T09:45:05;100865.47;;;6.36;100.00
53651;BME280;39552;45.776;15.892;2023-02-02T09:47:54;100860.47;;;6.52;100.00
53651;BME280;39552;45.776;15.892;2023-02-02T09:50:33;100860.56;;;6.76;100.00
53651;BME280;39552;45.776;15.892;2023-02-02T09:53:05;100848.31;;;6.94;100.00
53651;BME280;39552;45.776;15.892;2023-02-02T09:55:39;100836.19;;;7.07;100.00
53651;BME280;39552;45.776;15.892;2023-02-02T09:58:13;100849.75;;;7.04;100.00
53651;BME280;39552;45.776;15.892;2023-02-02T10:00:45;100860.31;;;6.83;100.00
53651;BME280;39552;45.776;15.892;2023-02-02T10:03:17;100863.25;;;6.76;100.00
53651;BME280;39552;45.776;15.892;2023-02-02T10:05:49;100874.22;;;6.69;100.00
53651;BME280;39552;45.776;15.892;2023-02-02T10:08:25;100876.00;;;6.71;100.00
53651;BME280;39552;45.776;15.892;2023-02-02T10:11:10;100856.16;;;6.75;100.00
53651;BME280;39552;45.776;15.892;2023-02-02T10:13:42;100871.16;;;6.82;100.00
53651;BME280;39552;45.776;15.892;2023-02-02T10:16:20;100879.09;;;6.85;100.00
53651;BME280;39552;45.776;15.892;2023-02-02T10:18:51;100899.09;;;7.03;100.00
53651;BME280;39552;45.776;15.892;2023-02-02T10:21:26;100883.84;;;7.03;100.00
53651;BME280;39552;45.776;15.892;2023-02-02T10:23:55;100889.06;;;7.08;100.00
53651;BME280;39552;45.776;15.892;2023-02-02T10:26:27;100866.38;;;6.90;100.00
53651;BME280;39552;45.776;15.892;2023-02-02T10:29:04;100876.88;;;6.98;100.00
53651;BME280;39552;45.776;15.892;2023-02-02T10:31:40;100879.44;;;7.01;100.00
53651;BME280;39552;45.776;15.892;2023-02-02T10:34:13;100895.47;;;7.04;100.00
53651;BME280;39552;45.776;15.892;2023-02-02T10:36:59;100872.75;;;7.13;100.00
53651;BME280;39552;45.776;15.892;2023-02-02T10:39:38;100848.44;;;7.16;100.00
53651;BME280;39552;45.776;15.892;2023-02-02T10:42:17;100865.78;;;7.32;100.00
53651;BME280;39552;45.776;15.892;2023-02-02T10:44:49;100857.34;;;7.41;100.00
53651;BME280;39552;45.776;15.892;2023-02-02T10:47:23;100862.13;;;7.58;100.00
53651;BME280;39552;45.776;15.892;2023-02-02T10:49:58;100843.50;;;7.76;100.00
53651;BME280;39552;45.776;15.892;2023-02-02T10:52:30;100835.84;;;7.65;100.00
53651;BME280;39552;45.776;15.892;2023-02-02T10:55:00;100845.03;;;7.83;100.00
53651;BME280;39552;45.776;15.892;2023-02-02T10:57:47;100849.56;;;7.82;100.00
53651;BME280;39552;45.776;15.892;2023-02-02T11:00:20;100825.34;;;7.81;100.00
53651;BME280;39552;45.776;15.892;2023-02-02T11:02:50;100839.44;;;7.87;100.00
53651;BME280;39552;45.776;15.892;2023-02-02T11:05:20;100848.44;;;7.88;100.00
53651;BME280;39552;45.776;15.892;2023-02-02T11:07:48;100848.19;;;7.94;100.00
53651;BME280;39552;45.776;15.892;2023-02-02T11:10:15;100842.28;;;7.84;100.00
53651;BME280;39552;45.776;15.892;2023-02-02T11:12:45;100834.19;;;7.84;100.00
53651;BME280;39552;45.776;15.892;2023-02-02T11:15:23;100828.16;;;7.78;100.00
53651;BME280;39552;45.776;15.892;2023-02-02T11:17:50;100839.66;;;7.83;100.00
53651;BME280;39552;45.776;15.892;2023-02-02T11:20:23;100837.75;;;7.85;100.00
53651;BME280;39552;45.776;15.892;2023-02-02T11:22:59;100837.88;;;7.82;100.00
53651;BME280;39552;45.776;15.892;2023-02-02T11:25:29;100836.59;;;7.92;100.00
53651;BME280;39552;45.776;15.892;2023-02-02T11:28:09;100836.81;;;7.86;100.00
53651;BME280;39552;45.776;15.892;2023-02-02T11:30:37;100824.53;;;7.79;100.00
53651;BME280;39552;45.776;15.892;2023-02-02T11:33:20;100825.09;;;7.87;100.00
53651;BME280;39552;45.776;15.892;2023-02-02T11:35:53;100821.88;;;8.01;100.00
53651;BME280;39552;45.776;15.892;2023-02-02T11:38:21;100827.56;;;7.93;100.00
53651;BME280;39552;45.776;15.892;2023-02-02T11:40:54;100815.25;;;7.86;100.00
53651;BME280;39552;45.776;15.892;2023-02-02T11:43:29;100832.47;;;8.05;100.00
53651;BME280;39552;45.776;15.892;2023-02-02T11:45:59;100815.91;;;8.15;100.00
53651;BME280;39552;45.776;15.892;2023-02-02T11:48:31;100814.19;;;8.14;100.00
53651;BME280;39552;45.776;15.892;2023-02-02T11:51:00;100824.59;;;8.23;100.00
53651;BME280;39552;45.776;15.892;2023-02-02T11:53:29;100802.63;;;8.10;100.00
53651;BME280;39552;45.776;15.892;2023-02-02T11:56:01;100812.16;;;8.19;100.00
53651;BME280;39552;45.776;15.892;2023-02-02T11:58:42;100794.84;;;8.24;100.00
53651;BME280;39552;45.776;15.892;2023-02-02T12:01:24;100782.38;;;8.22;100.00
53651;BME280;39552;45.776;15.892;2023-02-02T12:03:53;100791.78;;;8.34;100.00
53651;BME280;39552;45.776;15.892;2023-02-02T12:06:22;100783.53;;;8.38;100.00
53651;BME280;39552;45.776;15.892;2023-02-02T12:08:57;100791.59;;;8.38;100.00
53651;BME280;39552;45.776;15.892;2023-02-02T12:11:33;100788.06;;;8.36;100.00
53651;BME280;39552;45.776;15.892;2023-02-02T12:14:24;100779.88;;;8.39;100.00
53651;BME280;39552;45.776;15.892;2023-02-02T12:17:00;100763.69;;;8.39;100.00
53651;BME280;39552;45.776;15.892;2023-02-02T12:22:40;100750.81;;;8.68;100.00
53651;BME280;39552;45.776;15.892;2023-02-02T12:25:28;100732.38;;;8.57;100.00
53651;BME280;39552;45.776;15.892;2023-02-02T12:28:04;100743.13;;;8.79;100.00
53651;BME280;39552;45.776;15.892;2023-02-02T12:30:41;100745.13;;;8.74;100.00
53651;BME280;39552;45.776;15.892;2023-02-02T12:33:22;100751.88;;;8.84;100.00
53651;BME280;39552;45.776;15.892;2023-02-02T12:36:16;100742.97;;;8.82;100.00
53651;BME280;39552;45.776;15.892;2023-02-02T12:39:08;100746.34;;;9.08;100.00
53651;BME280;39552;45.776;15.892;2023-02-02T12:41:59;100727.38;;;9.29;100.00
53651;BME280;39552;45.776;15.892;2023-02-02T12:44:38;100714.19;;;9.41;100.00
53651;BME280;39552;45.776;15.892;2023-02-02T12:47:17;100707.19;;;9.56;100.00
53651;BME280;39552;45.776;15.892;2023-02-02T12:49:58;100703.88;;;9.69;100.00
53651;BME280;39552;45.776;15.892;2023-02-02T12:52:37;100713.84;;;9.86;100.00
53651;BME280;39552;45.776;15.892;2023-02-02T12:55:16;100731.28;;;9.97;100.00
53651;BME280;39552;45.776;15.892;2023-02-02T12:57:52;100723.91;;;10.01;100.00